Time;durP1;ratioP1;P1;durP2;ratioP2;P2;SDS_P1;SDS_P2;PMS_P1;PMS_P2;Temp;Humidity;BMP_temperature;BMP_pressure;BME280_temperature;BME280_humidity;BME280_pressure;Samples;Min_cycle;Max_cycle;Signal;HPM_P1;HPM_P2
2022/05/25 00:00:14;;;;;;;7.68;4.40;;;;;;;14.77;100.00;99940.59;5590077;31;35142;-67
2022/05/25 00:03:17;;;;;;;7.90;4.60;;;;;;;14.79;100.00;99938.56;5589670;31;34437;-68
2022/05/25 00:06:20;;;;;;;6.20;4.60;;;;;;;14.76;100.00;99934.44;5588980;31;34624;-67
2022/05/25 00:09:23;;;;;;;6.68;4.55;;;;;;;14.65;100.00;99939.59;5589740;31;33865;-68
2022/05/25 00:12:27;;;;;;;6.37;4.50;;;;;;;14.57;100.00;99931.78;5589540;31;35299;-67
2022/05/25 00:15:30;;;;;;;5.60;4.45;;;;;;;14.57;100.00;99931.78;5575711;31;32904;-68
2022/05/25 00:18:33;;;;;;;6.55;4.72;;;;;;;14.47;100.00;99924.19;5589606;31;34297;-68
2022/05/25 00:21:36;;;;;;;6.68;4.82;;;;;;;14.47;100.00;99932.19;5589505;31;33910;-67
2022/05/25 00:24:38;;;;;;;7.45;5.07;;;;;;;14.45;100.00;99939.56;5589803;31;33949;-67
2022/05/25 00:27:41;;;;;;;5.82;4.70;;;;;;;14.45;100.00;99946.75;5588666;31;34062;-68
2022/05/25 00:30:46;;;;;;;8.85;4.53;;;;;;;14.55;100.00;99945.34;5589671;31;34006;-68
2022/05/25 00:33:48;;;;;;;5.70;4.30;;;;;;;14.60;100.00;99950.06;5589556;31;34230;-68
2022/05/25 00:36:51;;;;;;;7.18;4.70;;;;;;;14.68;100.00;99948.00;5575703;31;33286;-68
2022/05/25 00:39:54;;;;;;;7.57;4.70;;;;;;;14.64;100.00;99941.44;5588598;31;33947;-68
2022/05/25 00:42:57;;;;;;;6.35;4.47;;;;;;;14.67;100.00;99932.19;5589383;31;35265;-68
2022/05/25 00:46:06;;;;;;;6.68;4.70;;;;;;;14.62;100.00;99937.34;5589152;31;35346;-68
2022/05/25 00:49:26;;;;;;;8.32;4.40;;;;;;;14.82;100.00;99942.66;5589208;31;33916;-68
2022/05/25 00:52:29;;;;;;;6.35;4.20;;;;;;;14.93;100.00;99936.72;5589023;31;33988;-69
2022/05/25 00:55:32;;;;;;;8.50;4.97;;;;;;;14.98;100.00;99944.94;5589104;31;34019;-68
2022/05/25 00:58:38;;;;;;;7.07;5.25;;;;;;;14.96;100.00;99944.31;5588978;31;34637;-67
2022/05/25 01:01:42;;;;;;;12.30;4.93;;;;;;;15.08;100.00;99946.16;5589018;31;33927;-68
2022/05/25 01:04:47;;;;;;;6.12;4.80;;;;;;;15.02;100.00;99952.31;5588197;31;33525;-68
2022/05/25 01:08:08;;;;;;;6.97;4.93;;;;;;;14.95;100.00;99956.84;5588539;31;34002;-69
2022/05/25 01:11:39;;;;;;;6.25;4.60;;;;;;;14.99;100.00;99949.25;5588834;31;33910;-68
2022/05/25 01:14:51;;;;;;;6.55;4.32;;;;;;;15.02;100.00;99960.34;5590659;31;34398;-70
2022/05/25 01:18:25;;;;;;;5.30;4.20;;;;;;;15.01;100.00;99964.03;5591204;31;33912;-68
2022/05/25 01:22:02;;;;;;;7.32;4.10;;;;;;;15.06;100.00;99966.91;5591046;31;34587;-68
2022/05/25 01:25:31;;;;;;;4.72;3.65;;;;;;;15.07;100.00;99975.75;5591022;31;34746;-68
2022/05/25 01:29:10;;;;;;;5.90;3.97;;;;;;;15.07;100.00;99978.41;5590979;31;34053;-68
2022/05/25 01:32:29;;;;;;;5.43;3.78;;;;;;;15.10;100.00;99967.34;5590894;31;34001;-68
2022/05/25 01:36:12;;;;;;;8.13;3.90;;;;;;;15.11;100.00;99971.63;5590270;31;32540;-68
2022/05/25 01:39:23;;;;;;;5.40;3.58;;;;;;;15.10;100.00;99978.00;5564981;31;34073;-69
2022/05/25 01:42:34;;;;;;;4.47;3.62;;;;;;;15.08;100.00;99975.53;5591073;31;34629;-69
2022/05/25 01:45:45;;;;;;;4.15;3.70;;;;;;;15.06;100.00;99979.44;5590997;31;34674;-68
2022/05/25 01:48:49;;;;;;;4.90;3.72;;;;;;;15.02;100.00;99967.53;5590122;31;32577;-68
2022/05/25 01:52:00;;;;;;;5.65;3.60;;;;;;;14.97;100.00;99972.66;5590883;31;33915;-69
2022/05/25 01:55:07;;;;;;;5.25;3.80;;;;;;;14.97;100.00;99972.66;5576862;31;33225;-69
2022/05/25 01:58:16;;;;;;;8.10;3.60;;;;;;;14.98;100.00;99972.47;5589857;31;32364;-68
2022/05/25 02:01:20;;;;;;;5.97;3.87;;;;;;;15.04;100.00;99993.00;5590723;31;34561;-69
2022/05/25 02:04:24;;;;;;;4.70;3.80;;;;;;;15.04;100.00;99978.84;5590787;31;34221;-69
2022/05/25 02:07:36;;;;;;;7.00;3.40;;;;;;;14.96;100.00;99982.53;5590017;31;34554;-69
2022/05/25 02:10:50;;;;;;;4.22;3.40;;;;;;;14.91;100.00;99976.97;5590492;31;34070;-69
2022/05/25 02:14:03;;;;;;;5.68;3.67;;;;;;;14.86;100.00;99976.78;5590607;31;33904;-70
2022/05/25 02:17:32;;;;;;;5.05;3.72;;;;;;;14.85;100.00;99969.81;5590722;31;33963;-69
2022/05/25 02:20:56;;;;;;;5.93;4.00;;;;;;;14.82;100.00;99972.03;5590584;31;33477;-69
2022/05/25 02:24:11;;;;;;;4.85;3.58;;;;;;;14.76;100.00;99973.72;5589868;31;33818;-69
2022/05/25 02:27:39;;;;;;;7.20;3.37;;;;;;;14.74;100.00;99973.06;5590674;31;34064;-70
2022/05/25 02:30:47;;;;;;;5.87;3.50;;;;;;;14.72;100.00;99962.59;5575277;31;227384;-69
2022/05/25 02:33:55;;;;;;;4.40;3.65;;;;;;;14.69;100.00;99962.19;5590654;31;34290;-69
2022/05/25 02:36:59;;;;;;;5.53;3.83;;;;;;;14.65;100.00;99960.94;5589607;31;34466;-69
2022/05/25 02:40:05;;;;;;;6.40;4.00;;;;;;;14.68;100.00;99960.53;5589512;31;32960;-69
2022/05/25 02:43:08;;;;;;;6.32;3.78;;;;;;;14.65;100.00;99963.63;5589513;31;34192;-69
2022/05/25 02:46:11;;;;;;;6.60;3.62;;;;;;;14.62;100.00;99964.03;5590429;31;34608;-70
2022/05/25 02:49:15;;;;;;;5.57;3.83;;;;;;;14.65;100.00;99955.63;5590305;31;33906;-69
2022/05/25 02:52:17;;;;;;;8.00;3.97;;;;;;;14.53;100.00;99957.22;5590355;31;34250;-69
2022/05/25 02:55:20;;;;;;;9.43;3.95;;;;;;;14.54;100.00;99958.88;5590332;31;34013;-70
2022/05/25 02:58:24;;;;;;;6.80;4.03;;;;;;;14.59;100.00;99951.91;5590232;31;34641;-70
2022/05/25 03:01:26;;;;;;;6.45;4.50;;;;;;;14.46;100.00;99948.41;5590539;31;35159;-69
2022/05/25 03:04:30;;;;;;;5.47;4.20;;;;;;;14.51;100.00;99954.78;5590189;31;33929;-70
2022/05/25 03:07:34;;;;;;;6.53;4.00;;;;;;;14.47;100.00;99960.72;5590217;31;34061;-70
2022/05/25 03:10:37;;;;;;;5.15;4.53;;;;;;;14.44;100.00;99963.78;5590209;31;33795;-70
2022/05/25 03:13:45;;;;;;;5.70;4.37;;;;;;;14.41;100.00;99964.19;5590291;31;34800;-69
2022/05/25 03:16:48;;;;;;;7.25;4.30;;;;;;;14.42;100.00;99976.53;5590166;31;35556;-69
2022/05/25 03:19:53;;;;;;;6.30;4.22;;;;;;;14.37;100.00;99970.97;5589948;31;34680;-70
2022/05/25 03:22:56;;;;;;;6.93;4.00;;;;;;;14.38;100.00;99965.41;5590109;31;34560;-70
2022/05/25 03:25:58;;;;;;;5.18;3.90;;;;;;;14.31;100.00;99965.38;5590075;31;34003;-70
2022/05/25 03:29:01;;;;;;;6.82;4.28;;;;;;;14.30;100.00;99970.91;5589991;31;33901;-70
2022/05/25 03:32:04;;;;;;;6.55;4.05;;;;;;;14.34;100.00;99972.97;5589084;31;34031;-69
2022/05/25 03:35:09;;;;;;;7.40;4.03;;;;;;;14.35;100.00;99969.28;5588851;31;32698;-69
2022/05/25 03:38:12;;;;;;;6.00;4.22;;;;;;;14.40;100.00;99981.22;5589466;31;33969;-70
2022/05/25 03:41:17;;;;;;;5.28;3.78;;;;;;;14.47;100.00;99982.09;5590230;31;34218;-70
2022/05/25 03:44:22;;;;;;;6.35;3.75;;;;;;;14.46;100.00;99989.25;5588997;31;34118;-69
2022/05/25 03:47:24;;;;;;;5.43;3.87;;;;;;;14.50;100.00;99981.66;5589024;31;32595;-69
2022/05/25 03:50:27;;;;;;;6.18;3.85;;;;;;;14.51;100.00;99983.31;5588902;31;32592;-70
2022/05/25 03:53:30;;;;;;;4.70;3.72;;;;;;;14.60;100.00;99990.09;5589027;31;35284;-70
2022/05/25 03:56:32;;;;;;;4.82;4.00;;;;;;;14.64;100.00;100000.16;5589835;31;34279;-70
2022/05/25 03:59:35;;;;;;;4.80;3.78;;;;;;;14.72;100.00;100002.63;5589666;31;34706;-70
2022/05/25 04:02:38;;;;;;;4.53;3.42;;;;;;;14.78;100.00;100001.00;5588929;31;33394;-70
2022/05/25 04:05:42;;;;;;;5.18;3.62;;;;;;;14.81;100.00;100003.28;5588789;31;34572;-71
2022/05/25 04:08:45;;;;;;;5.20;3.70;;;;;;;14.94;100.00;100011.31;5589680;31;34105;-70
2022/05/25 04:11:49;;;;;;;8.93;3.95;;;;;;;14.81;100.00;100011.31;5589577;31;33987;-70
2022/05/25 04:14:51;;;;;;;5.53;4.10;;;;;;;14.89;100.00;100013.75;5588717;31;34811;-70
2022/05/25 04:17:54;;;;;;;5.25;3.58;;;;;;;14.95;100.00;100009.47;5589496;31;34383;-70
2022/05/25 04:20:57;;;;;;;5.00;3.78;;;;;;;15.00;100.00;100004.31;5589418;31;34630;-70
2022/05/25 04:24:00;;;;;;;5.68;3.60;;;;;;;14.98;100.00;100001.03;5589500;31;33999;-70
2022/05/25 04:27:03;;;;;;;5.30;3.65;;;;;;;14.97;100.00;99996.69;5588602;31;32562;-70
2022/05/25 04:30:08;;;;;;;7.78;3.40;;;;;;;15.06;100.00;100008.81;5589232;31;34067;-71
2022/05/25 04:33:11;;;;;;;5.50;3.50;;;;;;;15.16;100.00;100017.25;5588645;31;34054;-69
2022/05/25 04:36:14;;;;;;;4.80;3.22;;;;;;;15.49;100.00;100020.72;5589312;31;34011;-70
2022/05/25 04:39:17;;;;;;;4.15;3.08;;;;;;;15.58;100.00;100016.84;5588693;31;33775;-70
2022/05/25 04:42:20;;;;;;;5.43;2.90;;;;;;;15.56;100.00;100010.88;5589097;31;33975;-70
2022/05/25 04:45:25;;;;;;;6.47;3.35;;;;;;;15.68;100.00;100008.38;5588983;31;34857;-70
2022/05/25 04:48:28;;;;;;;4.50;3.35;;;;;;;15.79;100.00;100010.37;5587996;31;33994;-70
2022/05/25 04:51:31;;;;;;;7.62;3.37;;;;;;;15.65;100.00;100006.94;5589138;31;34068;-70
2022/05/25 04:54:34;;;;;;;5.55;3.03;;;;;;;15.59;100.00;99996.25;5587984;31;34077;-70
2022/05/25 04:57:38;;;;;;;7.03;3.10;;;;;;;15.65;100.00;100006.09;5589288;31;33952;-70
2022/05/25 05:00:41;;;;;;;4.00;3.20;;;;;;;15.79;100.00;100010.37;5588823;31;34038;-70
2022/05/25 05:03:43;;;;;;;4.70;3.12;;;;;;;15.76;100.00;100018.84;5588258;31;33349;-70
2022/05/25 05:06:47;;;;;;;5.20;2.90;;;;;;;15.85;100.00;100014.91;5588012;31;33928;-70
2022/05/25 05:09:50;;;;;;;5.15;3.17;;;;;;;16.08;100.00;100023.25;5588556;31;34046;-71
2022/05/25 05:12:53;;;;;;;3.33;2.78;;;;;;;15.96;100.00;100022.28;5587624;31;32328;-70
2022/05/25 05:16:04;;;;;;;5.80;3.15;;;;;;;15.92;100.00;100018.41;5587769;31;32988;-69
2022/05/25 05:19:08;;;;;;;4.40;2.80;;;;;;;16.37;100.00;100032.59;5588584;31;34317;-69
2022/05/25 05:22:13;;;;;;;3.47;2.60;;;;;;;16.46;100.00;100025.94;5587991;31;33952;-69
2022/05/25 05:25:15;;;;;;;5.15;2.78;;;;;;;16.64;100.00;100030.63;5588555;31;34592;-69
2022/05/25 05:28:21;;;;;;;9.93;3.20;;;;;;;16.88;100.00;100031.72;5588364;31;33970;-69
2022/05/25 05:31:24;;;;;;;3.80;2.28;;;;;;;17.08;100.00;100036.94;5587075;31;33179;-68
2022/05/25 05:34:28;;;;;;;4.25;2.33;;;;;;;17.13;97.59;100042.47;5587169;31;32546;-70
2022/05/25 05:37:36;;;;;;;4.12;2.58;;;;;;;16.97;97.46;100046.47;5561321;31;34574;-70
2022/05/25 05:40:39;;;;;;;3.90;2.40;;;;;;;17.25;95.26;100049.56;5587646;31;34898;-70
2022/05/25 05:43:42;;;;;;;4.32;2.80;;;;;;;17.12;97.90;100063.06;5587978;31;34769;-70
2022/05/25 05:46:47;;;;;;;8.82;2.85;;;;;;;17.25;100.00;100067.50;5586659;31;34190;-70
2022/05/25 05:49:51;;;;;;;6.43;2.87;;;;;;;17.37;98.13;100069.28;5586516;31;32891;-69
2022/05/25 05:52:59;;;;;;;3.75;2.80;;;;;;;17.32;100.00;100071.78;5587354;31;34664;-69
2022/05/25 05:56:02;;;;;;;7.87;3.03;;;;;;;17.31;97.10;100062.09;5586503;31;32798;-70
2022/05/25 05:59:05;;;;;;;4.03;2.40;;;;;;;17.52;99.67;100068.94;5587892;31;34047;-69
2022/05/25 06:02:08;;;;;;;3.95;2.70;;;;;;;17.84;95.05;100071.53;5589668;31;33063;-69
2022/05/25 06:05:11;;;;;;;6.82;2.40;;;;;;;17.95;92.45;100082.38;5589989;31;34631;-69
2022/05/25 06:08:17;;;;;;;4.78;2.47;;;;;;;17.65;95.87;100082.25;5589196;31;32489;-69
2022/05/25 06:11:20;;;;;;;5.37;3.08;;;;;;;17.75;95.68;100087.94;5590204;31;33729;-69
2022/05/25 06:14:23;;;;;;;6.12;3.00;;;;;;;17.65;96.19;100079.56;5589964;31;34098;-69
2022/05/25 06:20:50;;;;;;;4.22;2.50;;;;;;;18.00;92.62;100076.31;5589161;31;33231;-69
2022/05/25 06:23:53;;;;;;;5.68;2.72;;;;;;;17.87;94.64;100093.38;5590340;31;34353;-70
2022/05/25 06:26:56;;;;;;;3.50;2.50;;;;;;;17.90;94.08;100089.44;5590177;31;34607;-70
2022/05/25 06:29:59;;;;;;;4.15;2.60;;;;;;;18.19;89.34;100078.78;5590048;31;34690;-70
2022/05/25 06:33:05;;;;;;;4.75;3.03;;;;;;;18.41;90.49;100079.12;5590206;31;34074;-69
2022/05/25 06:36:27;;;;;;;4.40;3.00;;;;;;;18.57;86.76;100077.72;5589713;31;33874;-69
2022/05/25 06:39:35;;;;;;;4.65;2.90;;;;;;;18.46;85.09;100079.28;5589509;31;33995;-69
2022/05/25 06:42:41;;;;;;;4.43;2.60;;;;;;;18.64;87.00;100075.75;5589379;31;34772;-70
2022/05/25 06:45:44;;;;;;;4.40;2.50;;;;;;;18.88;85.18;100080.16;5589601;31;33949;-69
2022/05/25 06:48:49;;;;;;;3.65;2.72;;;;;;;19.17;81.66;100083.06;5588707;31;33799;-69
2022/05/25 06:51:51;;;;;;;3.97;2.58;;;;;;;19.08;82.09;100082.56;5575875;31;34123;-70
2022/05/25 06:54:55;;;;;;;4.12;2.25;;;;;;;19.28;80.82;100077.69;5589156;31;32402;-70
2022/05/25 06:57:57;;;;;;;4.65;2.70;;;;;;;19.36;81.05;100076.53;5589076;31;33940;-70
2022/05/25 07:01:01;;;;;;;3.03;2.40;;;;;;;19.49;79.82;100070.97;5589827;31;34489;-70
2022/05/25 07:04:05;;;;;;;3.65;2.35;;;;;;;20.00;78.56;100070.22;5589924;31;35247;-71
2022/05/25 07:07:08;;;;;;;7.95;2.60;;;;;;;20.46;75.93;100074.72;5589641;31;35157;-71
2022/05/25 07:10:11;;;;;;;3.62;2.33;;;;;;;20.70;72.48;100068.19;5588337;31;33244;-71
2022/05/25 07:13:17;;;;;;;2.92;1.92;;;;;;;20.78;73.53;100069.66;5589662;31;33970;-71
2022/05/25 07:16:20;;;;;;;4.78;2.42;;;;;;;21.03;72.53;100069.28;5589923;31;33937;-71
2022/05/25 07:19:23;;;;;;;3.95;2.67;;;;;;;21.25;70.46;100070.25;5588813;31;33354;-71
2022/05/25 07:22:26;;;;;;;4.82;2.25;;;;;;;21.11;70.86;100074.28;5589200;31;32687;-72
2022/05/25 07:25:29;;;;;;;3.85;2.30;;;;;;;21.67;71.42;100084.97;5589280;31;33673;-71
2022/05/25 07:28:33;;;;;;;4.65;2.33;;;;;;;21.58;71.54;100075.66;5575927;31;33118;-71
2022/05/25 07:31:51;;;;;;;7.57;2.30;;;;;;;21.84;68.09;100076.00;5588655;31;32457;-71
2022/05/25 07:34:59;;;;;;;3.28;1.70;;;;;;;22.64;65.56;100064.59;5588714;31;33100;-72
2022/05/25 07:38:04;;;;;;;3.37;2.00;;;;;;;23.74;62.36;100061.25;5588500;31;32616;-71
2022/05/25 07:41:08;;;;;;;3.80;2.00;;;;;;;24.84;60.70;100051.13;5589307;31;34541;-72
2022/05/25 07:44:17;;;;;;;3.42;1.80;;;;;;;24.93;59.30;100057.72;5589488;31;34160;-72
2022/05/25 07:47:20;;;;;;;2.47;1.90;;;;;;;25.55;55.53;100070.22;5589594;31;34678;-71
2022/05/25 07:50:23;;;;;;;7.18;2.30;;;;;;;26.03;51.64;100068.75;5575677;31;33379;-72
2022/05/25 07:56:47;;;;;;;3.20;1.80;;;;;;;25.06;54.60;100068.84;5588144;31;32661;-71
2022/05/25 07:59:50;;;;;;;3.80;2.10;;;;;;;25.82;52.97;100070.69;5588755;31;33803;-72
2022/05/25 08:06:16;;;;;;;5.20;1.90;;;;;;;25.70;53.40;100076.44;5588714;31;32453;-73
2022/05/25 08:09:19;;;;;;;3.12;2.05;;;;;;;26.26;51.68;100082.56;5588762;31;33204;-71
2022/05/25 08:12:24;;;;;;;3.30;1.87;;;;;;;26.28;51.60;100074.13;5588097;31;33203;-72
2022/05/25 08:15:29;;;;;;;2.58;1.80;;;;;;;26.53;52.04;100068.53;5588880;31;33934;-72
2022/05/25 08:18:32;;;;;;;2.97;1.65;;;;;;;26.37;50.64;100075.19;5588454;31;33120;-72
2022/05/25 08:21:34;;;;;;;4.20;1.85;;;;;;;27.41;49.37;100078.59;5588297;31;34739;-71
2022/05/25 08:24:48;;;;;;;3.53;2.00;;;;;;;28.19;46.19;100071.00;5588588;31;33643;-71
2022/05/25 08:27:51;;;;;;;3.55;2.03;;;;;;;28.14;47.49;100070.25;5587843;31;33079;-70
2022/05/25 08:30:54;;;;;;;4.20;2.00;;;;;;;27.79;47.65;100060.56;5587722;31;32604;-71
2022/05/25 08:33:59;;;;;;;4.05;2.15;;;;;;;28.33;47.22;100062.94;5589195;31;33945;-70
2022/05/25 08:37:03;;;;;;;3.00;2.22;;;;;;;28.49;47.35;100059.72;5587606;31;33240;-71
2022/05/25 08:40:06;;;;;;;2.85;1.85;;;;;;;27.66;47.93;100060.13;5588842;31;33971;-71
2022/05/25 08:43:18;;;;;;;2.65;2.00;;;;;;;28.71;45.66;100061.88;5589203;31;35349;-72
2022/05/25 08:46:24;;;;;;;5.60;2.15;;;;;;;29.00;45.89;100064.44;5588868;31;34005;-71
2022/05/25 08:49:31;;;;;;;4.72;2.95;;;;;;;28.57;45.31;100069.16;5575095;31;32494;-71
2022/05/25 08:52:35;;;;;;;2.90;2.25;;;;;;;28.18;46.64;100057.66;5588484;31;34870;-71
2022/05/25 08:55:57;;;;;;;3.65;2.40;;;;;;;29.09;44.56;100065.41;5587421;31;33022;-71
2022/05/25 08:59:05;;;;;;;3.72;2.10;;;;;;;29.86;41.86;100073.12;5587180;31;34543;-70
2022/05/25 09:02:30;;;;;;;4.32;2.28;;;;;;;30.19;40.82;100061.00;5588239;31;34610;-71
2022/05/25 09:05:38;;;;;;;3.47;2.22;;;;;;;30.69;41.68;100064.59;5586899;31;32337;-70
2022/05/25 09:08:59;;;;;;;3.97;2.25;;;;;;;30.99;39.41;100061.13;5588098;31;34085;-70
2022/05/25 09:12:12;;;;;;;3.72;2.33;;;;;;;30.04;40.58;100066.78;5587793;31;34061;-70
2022/05/25 09:15:23;;;;;;;4.20;2.95;;;;;;;30.75;40.36;100065.25;5587077;31;33164;-71
2022/05/25 09:18:33;;;;;;;4.45;2.30;;;;;;;30.28;40.27;100069.28;5587549;31;34591;-71
2022/05/25 09:21:45;;;;;;;3.80;2.35;;;;;;;29.59;42.31;100062.94;5586894;31;32522;-71
2022/05/25 09:24:52;;;;;;;3.05;2.40;;;;;;;30.13;41.93;100063.00;5586870;31;33523;-70
2022/05/25 09:28:12;;;;;;;2.53;2.30;;;;;;;31.21;41.10;100056.81;5586838;31;32600;-71
2022/05/25 09:31:21;;;;;;;3.15;2.40;;;;;;;31.31;40.63;100051.06;5586891;31;33495;-72
2022/05/25 09:34:36;;;;;;;3.10;2.00;;;;;;;30.60;41.55;100055.47;5588369;31;33938;-72
2022/05/25 09:37:42;;;;;;;9.30;3.00;;;;;;;32.28;37.51;100061.06;5589449;31;32593;-69
2022/05/25 09:40:52;;;;;;;4.10;2.60;;;;;;;31.47;37.54;100060.50;5588712;31;33747;-71
2022/05/25 09:43:59;;;;;;;6.75;3.30;;;;;;;32.16;36.35;100060.87;5589796;31;32537;-71
2022/05/25 09:47:06;;;;;;;2.87;2.45;;;;;;;32.00;37.26;100063.19;5578216;31;32514;-71
2022/05/25 09:50:31;;;;;;;3.40;2.30;;;;;;;32.18;37.04;100055.88;5594135;31;35226;-70
2022/05/25 09:53:39;;;;;;;3.55;2.50;;;;;;;32.97;35.64;100052.94;5592795;31;34353;-70
2022/05/25 09:56:49;;;;;;;3.90;2.80;;;;;;;32.53;36.60;100054.81;5591514;31;34188;-72
2022/05/25 10:00:03;;;;;;;4.93;2.50;;;;;;;32.98;36.31;100047.09;5590180;31;33907;-72
2022/05/25 10:03:13;;;;;;;3.87;2.42;;;;;;;32.68;36.97;100045.31;5590094;31;34607;-71
2022/05/25 10:06:22;;;;;;;3.45;2.40;;;;;;;33.62;35.92;100049.91;5590359;31;34102;-70
2022/05/25 10:09:29;;;;;;;8.32;2.90;;;;;;;33.19;36.71;100052.75;5589405;31;32980;-72
2022/05/25 10:12:40;;;;;;;3.85;2.62;;;;;;;31.94;38.21;100053.50;5589088;31;34648;-71
2022/05/25 10:15:43;;;;;;;3.30;2.70;;;;;;;31.91;38.12;100046.72;5589453;31;32555;-71
2022/05/25 10:18:46;;;;;;;4.37;2.50;;;;;;;33.12;35.52;100053.22;5588833;31;33786;-70
2022/05/25 10:21:51;;;;;;;3.35;2.30;;;;;;;32.34;37.29;100049.59;5590107;31;34600;-71
2022/05/25 10:25:01;;;;;;;3.17;2.20;;;;;;;33.37;37.42;100042.53;5590382;31;34651;-70
2022/05/25 10:28:18;;;;;;;4.00;2.47;;;;;;;33.88;35.16;100039.63;5588521;31;32943;-71
2022/05/25 10:38:06;;;;;;;3.50;2.60;;;;;;;32.89;35.99;100037.22;5588897;31;33317;-70
2022/05/25 10:44:57;;;;;;;4.80;3.03;;;;;;;30.71;43.58;100031.41;5588468;31;33113;-68
2022/05/25 10:48:11;;;;;;;5.25;2.70;;;;;;;31.12;40.11;100029.34;5581384;31;35218;-68
2022/05/25 10:51:30;;;;;;;7.70;2.60;;;;;;;28.47;48.03;100031.06;5588855;31;34022;-69
2022/05/25 10:54:54;;;;;;;5.25;2.97;;;;;;;28.22;47.67;100036.91;5589144;31;33353;-70
2022/05/25 10:58:18;;;;;;;5.32;3.10;;;;;;;27.86;50.21;100033.75;5589959;31;33973;-68
2022/05/25 11:01:50;;;;;;;4.30;2.72;;;;;;;28.82;45.49;100030.59;5589909;31;34830;-71
2022/05/25 11:05:23;;;;;;;5.22;2.90;;;;;;;31.84;40.29;100032.66;5589103;31;33094;-69
2022/05/25 11:09:07;;;;;;;4.25;2.90;;;;;;;30.27;43.19;100032.91;5589039;31;33658;-70
2022/05/25 11:12:19;;;;;;;3.22;2.45;;;;;;;31.09;42.17;100040.91;5589796;31;34270;-70
2022/05/25 11:15:35;;;;;;;9.50;3.12;;;;;;;32.79;38.08;100030.13;5590009;31;34597;-69
2022/05/25 11:18:56;;;;;;;5.93;2.95;;;;;;;32.11;38.38;100025.34;5589604;31;33923;-70
2022/05/25 11:22:28;;;;;;;3.35;2.55;;;;;;;31.33;41.76;100026.87;5576016;31;33046;-69
2022/05/25 11:25:43;;;;;;;5.22;2.58;;;;;;;30.53;42.86;100039.47;5566283;31;33554;-70
2022/05/25 11:29:21;;;;;;;2.80;2.45;;;;;;;31.48;40.86;100040.19;5591252;31;32411;-69
2022/05/25 11:32:26;;;;;;;3.15;2.30;;;;;;;34.51;34.64;100035.06;5588609;31;32811;-68
2022/05/25 11:36:03;;;;;;;8.13;2.67;;;;;;;34.15;35.91;100041.09;5575757;31;33474;-70
2022/05/25 11:39:19;;;;;;;3.42;2.47;;;;;;;33.87;35.88;100034.47;5588589;31;32846;-70
2022/05/25 11:42:48;;;;;;;4.57;2.70;;;;;;;33.33;36.33;100053.38;5588638;31;32606;-70
2022/05/25 11:45:57;;;;;;;4.35;2.97;;;;;;;29.65;44.72;100050.81;5581194;31;32754;-68
2022/05/25 11:49:42;;;;;;;4.32;2.50;;;;;;;27.55;49.78;100050.41;5589278;31;33950;-70
2022/05/25 11:53:02;;;;;;;5.72;2.67;;;;;;;30.03;45.32;100046.81;5589767;31;33893;-71
2022/05/25 11:56:17;;;;;;;6.15;2.90;;;;;;;33.16;38.27;100048.72;5588687;31;34758;-68
2022/05/25 11:59:30;;;;;;;4.65;2.70;;;;;;;30.23;43.64;100043.66;5589321;31;34128;-68
2022/05/25 12:03:12;;;;;;;3.78;2.58;;;;;;;29.74;44.45;100044.34;5588559;31;33392;-69
2022/05/25 12:06:53;;;;;;;6.03;2.87;;;;;;;27.20;52.42;100045.28;5588265;31;32563;-68
2022/05/25 12:10:10;;;;;;;3.97;2.80;;;;;;;26.55;54.48;100047.31;5588677;31;32732;-71
2022/05/25 12:13:21;;;;;;;3.55;2.33;;;;;;;29.03;48.36;100052.94;5588683;31;33408;-71
2022/05/25 12:16:39;;;;;;;2.87;2.50;;;;;;;32.22;41.19;100051.38;5587790;31;32472;-71
2022/05/25 12:19:44;;;;;;;4.50;2.80;;;;;;;33.01;39.16;100054.69;5589143;31;34683;-69
2022/05/25 12:22:52;;;;;;;4.28;3.03;;;;;;;29.10;46.83;100063.47;5588540;31;33339;-68
2022/05/25 12:26:04;;;;;;;5.37;2.83;;;;;;;28.47;49.11;100070.09;5589316;31;33842;-68
2022/05/25 12:29:21;;;;;;;4.50;2.55;;;;;;;30.86;43.58;100061.19;5588131;31;33770;-70
2022/05/25 12:32:26;;;;;;;8.18;2.67;;;;;;;30.22;44.54;100065.84;5587681;31;32595;-69
2022/05/25 12:35:32;;;;;;;5.18;2.92;;;;;;;33.07;38.83;100061.63;5589296;31;33933;-69
2022/05/25 12:38:37;;;;;;;5.15;2.97;;;;;;;32.38;38.97;100065.47;5589105;31;34734;-69
2022/05/25 12:41:40;;;;;;;6.03;3.10;;;;;;;31.66;40.67;100060.34;5588225;31;32642;-69
2022/05/25 12:51:33;;;;;;;8.05;2.78;;;;;;;31.68;40.81;100061.63;5588917;31;34032;-69
2022/05/25 12:54:42;;;;;;;4.85;2.65;;;;;;;32.35;38.91;100066.88;5589079;31;33994;-69
2022/05/25 12:57:52;;;;;;;3.72;2.42;;;;;;;31.71;39.97;100060.19;5588012;31;33980;-68
2022/05/25 13:01:13;;;;;;;6.18;2.75;;;;;;;32.91;37.55;100062.47;5588067;31;34090;-68
2022/05/25 13:04:35;;;;;;;5.40;2.90;;;;;;;34.57;34.09;100063.25;5588783;31;35160;-69
2022/05/25 13:07:42;;;;;;;4.82;2.60;;;;;;;32.69;37.31;100055.97;5587846;31;32585;-69
2022/05/25 13:10:48;;;;;;;5.93;2.62;;;;;;;33.35;36.81;100062.12;5586999;31;32536;-70
2022/05/25 13:13:50;;;;;;;4.20;2.80;;;;;;;32.75;37.91;100037.41;5587617;31;33071;-71
2022/05/25 13:17:03;;;;;;;3.80;2.53;;;;;;;34.00;35.11;100044.41;5587658;31;32317;-71
2022/05/25 13:20:48;;;;;;;3.80;2.37;;;;;;;34.42;34.07;100045.34;5587924;31;33217;-68
2022/05/25 13:23:55;;;;;;;4.05;2.65;;;;;;;35.45;31.98;100041.69;5587494;31;34007;-68
2022/05/25 13:27:11;;;;;;;4.75;2.87;;;;;;;33.71;34.75;100036.13;5587380;31;32386;-68
2022/05/25 13:30:39;;;;;;;3.05;2.45;;;;;;;33.93;34.32;100038.66;5587011;31;32431;-71
2022/05/25 13:33:45;;;;;;;2.65;2.20;;;;;;;35.37;32.33;100044.56;5587581;31;33357;-70
2022/05/25 13:36:56;;;;;;;5.97;2.50;;;;;;;36.03;31.45;100048.00;5588084;31;34339;-70
2022/05/25 13:40:00;;;;;;;3.62;2.75;;;;;;;36.43;30.67;100048.91;5587109;31;33505;-69
2022/05/25 13:43:03;;;;;;;4.37;2.95;;;;;;;33.68;34.55;100056.88;5587085;31;33160;-70
2022/05/25 13:46:09;;;;;;;4.70;3.08;;;;;;;33.84;34.45;100054.41;5586936;31;34136;-67
2022/05/25 13:49:31;;;;;;;3.60;2.70;;;;;;;34.73;33.78;100059.56;5561670;31;33300;-68
2022/05/25 13:52:35;;;;;;;3.67;2.72;;;;;;;34.29;33.54;100063.72;5586513;31;32580;-68
2022/05/25 13:55:41;;;;;;;3.78;3.00;;;;;;;33.42;35.03;100069.84;5587396;31;34247;-68
2022/05/25 13:58:47;;;;;;;3.58;2.65;;;;;;;31.10;38.99;100066.38;5573160;31;32558;-68
2022/05/25 14:01:50;;;;;;;6.40;2.95;;;;;;;27.07;49.37;100060.34;5586330;31;32458;-68
2022/05/25 14:05:01;;;;;;;5.40;3.83;;;;;;;25.50;54.78;100065.56;5573655;31;33323;-70
2022/05/25 14:08:18;;;;;;;6.65;3.60;;;;;;;24.69;57.85;100071.72;5585874;31;33039;-69
2022/05/25 14:11:24;;;;;;;9.23;3.70;;;;;;;24.83;58.32;100068.50;5587313;31;34609;-68
2022/05/25 14:14:35;;;;;;;6.25;3.80;;;;;;;24.95;57.34;100079.94;5586019;31;32457;-68
2022/05/25 14:17:38;;;;;;;4.50;3.75;;;;;;;24.84;57.39;100087.22;5586580;31;34943;-67
2022/05/25 14:20:41;;;;;;;9.82;4.12;;;;;;;24.88;57.72;100088.37;5573615;31;33704;-70
2022/05/25 14:23:44;;;;;;;5.82;4.12;;;;;;;25.27;56.37;100099.50;5588346;31;32711;-69
2022/05/25 14:26:53;;;;;;;9.40;4.20;;;;;;;25.06;56.97;100112.28;5588303;31;34205;-67
2022/05/25 14:30:01;;;;;;;;;;;;;;;24.95;56.15;100104.38;5588924;31;34578;-68
2022/05/25 14:33:17;;;;;;;7.30;3.90;;;;;;;25.41;54.58;100106.06;5588948;31;32905;-69
2022/05/25 14:36:21;;;;;;;7.18;3.42;;;;;;;26.19;52.46;100097.53;5576769;31;32588;-69
2022/05/25 14:39:33;;;;;;;5.37;3.50;;;;;;;27.74;47.47;100113.19;5589791;31;34060;-69
2022/05/25 14:42:58;;;;;;;4.37;3.75;;;;;;;26.29;50.84;100108.37;5588730;31;32405;-68
2022/05/25 14:46:15;;;;;;;4.65;3.40;;;;;;;25.25;54.21;100109.84;5588596;31;34044;-69
2022/05/25 14:49:18;;;;;;;5.28;3.60;;;;;;;27.33;48.96;100106.44;5588442;31;32958;-68
2022/05/25 14:52:27;;;;;;;7.95;3.65;;;;;;;25.95;51.43;100111.72;5588316;31;32911;-69
2022/05/25 14:55:52;;;;;;;5.20;3.40;;;;;;;25.84;51.34;100118.28;5588362;31;33756;-70
2022/05/25 14:58:56;;;;;;;3.85;3.12;;;;;;;25.23;54.27;100113.91;5588342;31;33462;-68
2022/05/25 15:02:00;;;;;;;5.60;3.70;;;;;;;24.64;55.91;100122.47;5589249;31;34685;-70
2022/05/25 15:05:26;;;;;;;3.22;2.92;;;;;;;24.70;56.33;100121.38;5588739;31;33380;-69